This is the latest recevied weather packets stored in our database for station/object KE7TOP-15. If no packets are shown the sender has not sent any weather packets the latest 10 day(s).
| Time | Temp. | Humidity | Pressure | Rain* | Wind** | Luminosity | Snow |
|---|---|---|---|---|---|---|---|
| 1777314025 | 7.22° C | 46% | 1015.5 hPa | 0 mm | - | 195 W/m² | - |
| 1777312222 | 7.22° C | 46% | 1015.2 hPa | 0 mm | - | 209 W/m² | - |
| 1777310417 | 7.22° C | 48% | 1015.2 hPa | 0 mm | - | 203 W/m² | - |
| 1777305020 | 5.56° C | 57% | 1015.2 hPa | 0 mm | - | 364 W/m² | - |
| 1777300217 | 0° C | 80% | 1015.2 hPa | 0 mm | - | 46 W/m² | - |
| 1777299023 | -0.56° C | 83% | 1015.1 hPa | 0 mm | - | 36 W/m² | - |
| 1777297819 | -1.11° C | 84% | 1014.8 hPa | 0 mm | - | 25 W/m² | - |
| 1777297217 | -1.11° C | 83% | 1014.6 hPa | 0 mm | - | 19 W/m² | - |
| 1777290618 | -0.56° C | 83% | 1014 hPa | 0 mm | - | 0 W/m² | - |
| 1777290017 | -0.56° C | 83% | 1014 hPa | 0 mm | - | 0 W/m² | - |
| 1777289425 | -0.56° C | 83% | 1014 hPa | 0 mm | - | 0 W/m² | - |
| 1777284017 | -0.56° C | 82% | 1013.7 hPa | 0 mm | - | 0 W/m² | - |
| 1777283415 | 0° C | 81% | 1013.7 hPa | 0 mm | - | 0 W/m² | - |
| 1777278062 | 1.67° C | 74% | 1013.6 hPa | 0 mm | - | 0 W/m² | - |
| 1777276215 | 2.78° C | 67% | 1013.9 hPa | 0 mm | - | 0 W/m² | - |
| 1777275022 | 3.33° C | 64% | 1013.7 hPa | 0 mm | - | 0 W/m² | - |
| 1777273819 | 3.33° C | 66% | 1013.5 hPa | 0 mm | - | 0 W/m² | - |
| 1777271422 | 3.33° C | 66% | 1013.3 hPa | 0 mm | - | 0 W/m² | - |
| 1777269618 | 3.33° C | 67% | 1013.2 hPa | 0 mm | - | 0 W/m² | - |
| 1777269024 | 3.33° C | 67% | 1013.3 hPa | 0 mm | - | 0 W/m² | - |
| 1777266617 | 3.89° C | 65% | 1013.2 hPa | 0 mm | - | 0 W/m² | - |
| 1777262437 | 4.44° C | 63% | 1012.4 hPa | 0 mm | - | 0 W/m² | - |
| 1777258224 | 5.56° C | 56% | 1011.3 hPa | 0 mm | - | 4 W/m² | - |
| 1777255217 | 7.78° C | 46% | 1010.9 hPa | 0 mm | - | 43 W/m² | - |
| 1777254615 | 8.89° C | 43% | 1010.9 hPa | 0 mm | - | 67 W/m² | - |
* Rain latest hour (hover to see other rain measurements)
** Current wind speed in m/s (hover to see current wind gust speed)